Time;durP1;ratioP1;P1;durP2;ratioP2;P2;SDS_P1;SDS_P2;PMS_P1;PMS_P2;Temp;Humidity;BMP_temperature;BMP_pressure;BME280_temperature;BME280_humidity;BME280_pressure;Samples;Min_cycle;Max_cycle;Signal;HPM_P1;HPM_P2
2021/01/25 00:01:00;;;;;;;6.37;4.93;;;3.10;99.90;;;;;;5055294;28;20177;-62
2021/01/25 00:03:26;;;;;;;8.03;6.07;;;3.10;99.90;;;;;;5055446;28;20171;-61
2021/01/25 00:05:51;;;;;;;6.30;5.70;;;2.90;99.90;;;;;;5055423;28;20467;-60
2021/01/25 00:08:17;;;;;;;6.93;5.50;;;3.00;99.90;;;;;;5055837;28;20190;-62
2021/01/25 00:10:42;;;;;;;6.60;6.00;;;3.00;99.90;;;;;;5054988;28;20167;-61
2021/01/25 00:13:10;;;;;;;8.10;6.67;;;2.80;99.90;;;;;;5033397;28;20533;-61
2021/01/25 00:15:35;;;;;;;6.30;5.70;;;2.80;99.90;;;;;;5016000;28;20259;-61
2021/01/25 00:18:01;;;;;;;6.57;5.97;;;2.80;99.90;;;;;;5015202;28;20493;-60
2021/01/25 00:20:26;;;;;;;6.67;5.97;;;2.80;99.90;;;;;;5015333;28;20233;-60
2021/01/25 00:22:52;;;;;;;6.73;6.03;;;2.80;99.90;;;;;;5014920;28;20163;-62
2021/01/25 00:25:17;;;;;;;6.70;5.50;;;2.80;99.90;;;;;;5015141;28;20171;-61
2021/01/25 00:27:43;;;;;;;6.67;6.00;;;3.00;99.90;;;;;;5046367;28;20299;-60
2021/01/25 00:30:15;;;;;;;5.93;5.30;;;2.90;99.90;;;;;;5054900;28;20193;-61
2021/01/25 00:32:41;;;;;;;5.33;4.83;;;3.00;99.90;;;;;;5054478;28;20204;-62
2021/01/25 00:35:07;;;;;;;6.30;5.20;;;2.90;99.90;;;;;;5054524;28;20448;-61
2021/01/25 00:37:32;;;;;;;5.53;4.90;;;2.70;99.90;;;;;;5054519;28;20165;-62
2021/01/25 00:39:58;;;;;;;6.20;4.50;;;2.40;99.90;;;;;;5054507;28;20827;-62
2021/01/25 00:42:23;;;;;;;5.53;4.80;;;2.20;99.90;;;;;;5054621;28;20166;-60
2021/01/25 00:44:49;;;;;;;5.93;4.97;;;2.20;99.90;;;;;;5054711;28;20171;-60
2021/01/25 00:47:15;;;;;;;6.13;5.50;;;2.10;99.90;;;;;;5053851;28;20201;-61
2021/01/25 00:49:40;;;;;;;4.60;4.20;;;2.40;99.90;;;;;;5036316;28;20185;-59
2021/01/25 00:52:07;;;;;;;5.03;4.53;;;2.60;99.90;;;;;;5054601;28;20238;-60
2021/01/25 00:54:33;;;;;;;5.40;4.73;;;2.40;99.90;;;;;;5054382;28;20167;-61
2021/01/25 00:56:59;;;;;;;5.97;5.10;;;2.40;99.90;;;;;;5054518;28;20897;-59
2021/01/25 00:59:24;;;;;;;4.50;4.10;;;2.70;99.90;;;;;;5053986;28;20452;-62
2021/01/25 01:01:50;;;;;;;4.90;4.40;;;2.60;99.90;;;;;;5054056;28;20182;-62
2021/01/25 01:04:15;;;;;;;4.03;3.63;;;2.30;99.90;;;;;;5054104;28;20250;-59
2021/01/25 01:06:41;;;;;;;4.07;3.70;;;2.30;99.90;;;;;;5053846;28;20201;-61
2021/01/25 01:09:07;;;;;;;4.73;4.07;;;2.60;99.90;;;;;;5053857;28;20247;-61
2021/01/25 01:11:33;;;;;;;5.37;4.13;;;2.80;99.90;;;;;;5054414;28;20169;-62
2021/01/25 01:13:58;;;;;;;5.20;3.60;;;2.60;99.90;;;;;;5054220;28;20405;-62
2021/01/25 01:16:24;;;;;;;4.90;4.23;;;2.70;99.90;;;;;;5053875;28;20232;-61
2021/01/25 01:18:49;;;;;;;4.50;4.10;;;2.70;99.90;;;;;;5053930;28;20206;-58
2021/01/25 01:21:15;;;;;;;4.17;3.60;;;2.90;99.90;;;;;;5035981;28;20188;-60
2021/01/25 01:23:40;;;;;;;4.13;3.83;;;3.10;99.90;;;;;;5053973;28;20167;-60
2021/01/25 01:26:06;;;;;;;4.07;3.70;;;3.20;99.90;;;;;;5053761;28;20658;-61
2021/01/25 01:28:32;;;;;;;4.80;4.30;;;3.30;99.90;;;;;;5053814;28;20570;-61
2021/01/25 01:30:57;;;;;;;4.50;3.80;;;3.30;99.90;;;;;;5053637;28;20170;-61
2021/01/25 01:33:23;;;;;;;3.90;3.60;;;3.30;99.90;;;;;;5053501;28;20520;-60
2021/01/25 01:35:48;;;;;;;5.30;3.40;;;3.30;99.90;;;;;;5054331;28;20257;-60
2021/01/25 01:38:14;;;;;;;5.57;4.17;;;3.40;99.90;;;;;;5053874;28;20171;-60
2021/01/25 01:40:39;;;;;;;4.80;4.40;;;3.40;99.90;;;;;;5053728;28;20205;-60
2021/01/25 01:43:05;;;;;;;4.97;3.57;;;3.40;99.90;;;;;;5035691;28;20174;-60
2021/01/25 01:45:30;;;;;;;5.40;4.20;;;3.40;99.90;;;;;;5053812;28;20178;-60
2021/01/25 01:47:56;;;;;;;4.00;3.63;;;3.40;99.90;;;;;;5053827;28;20640;-61
2021/01/25 01:50:22;;;;;;;4.73;3.83;;;3.30;99.90;;;;;;5053187;28;20248;-61
2021/01/25 01:52:48;;;;;;;6.57;4.10;;;3.30;99.90;;;;;;5053528;28;20748;-61
2021/01/25 01:55:14;;;;;;;4.90;3.60;;;3.40;99.90;;;;;;5053790;28;20170;-61
2021/01/25 01:57:41;;;;;;;4.23;3.77;;;3.40;99.90;;;;;;5053583;28;20189;-60
2021/01/25 02:00:08;;;;;;;6.53;3.80;;;3.40;99.90;;;;;;5056972;28;20768;-61
2021/01/25 02:02:34;;;;;;;4.53;3.90;;;3.40;99.90;;;;;;5057440;28;20420;-61
2021/01/25 02:05:00;;;;;;;5.73;3.70;;;3.40;99.90;;;;;;5057727;28;20527;-61
2021/01/25 02:07:27;;;;;;;6.43;4.80;;;3.40;99.90;;;;;;5057719;28;20463;-61
2021/01/25 02:09:54;;;;;;;4.40;3.53;;;3.40;99.90;;;;;;5057535;28;20955;-61
2021/01/25 02:12:20;;;;;;;4.70;4.23;;;3.20;99.90;;;;;;5057393;28;20415;-61
2021/01/25 02:14:47;;;;;;;4.60;4.20;;;3.20;99.90;;;;;;5057663;28;20444;-60
2021/01/25 02:17:14;;;;;;;5.57;4.30;;;3.20;99.90;;;;;;5057516;28;20501;-60
2021/01/25 02:20:06;;;;;;;4.23;3.80;;;3.20;99.90;;;;;;5041778;28;20472;-59
2021/01/25 02:22:38;;;;;;;3.73;3.40;;;3.20;99.90;;;;;;5037111;28;20436;-61
2021/01/25 02:25:17;;;;;;;4.00;3.60;;;3.30;99.90;;;;;;5029658;28;20882;-61
2021/01/25 02:27:44;;;;;;;4.77;4.17;;;3.30;99.90;;;;;;5017262;28;20454;-61
2021/01/25 02:30:11;;;;;;;3.93;3.63;;;3.20;99.90;;;;;;5000116;28;20427;-59
2021/01/25 02:32:38;;;;;;;4.30;3.30;;;3.20;99.90;;;;;;5051006;28;20915;-62
2021/01/25 02:35:08;;;;;;;6.30;4.17;;;3.20;99.90;;;;;;5039139;28;20416;-61
2021/01/25 02:37:36;;;;;;;4.87;4.33;;;3.10;99.90;;;;;;5057024;28;20420;-60
2021/01/25 02:40:05;;;;;;;5.90;4.03;;;3.10;99.90;;;;;;5056849;28;20924;-61
2021/01/25 02:42:32;;;;;;;5.57;3.83;;;3.00;99.90;;;;;;5056793;28;20892;-62
2021/01/25 02:44:59;;;;;;;4.70;3.50;;;3.10;99.90;;;;;;5056852;28;20531;-61
2021/01/25 02:47:26;;;;;;;4.80;4.07;;;3.20;99.90;;;;;;5057465;28;20459;-55
2021/01/25 02:49:52;;;;;;;6.63;3.53;;;3.20;99.90;;;;;;5057384;28;20433;-61
2021/01/25 02:52:17;;;;;;;4.23;3.80;;;3.30;99.90;;;;;;5044934;28;20417;-58
2021/01/25 02:54:44;;;;;;;3.73;3.40;;;3.30;99.90;;;;;;5029352;28;20572;-61
2021/01/25 02:57:11;;;;;;;4.23;3.70;;;3.30;99.90;;;;;;5037496;28;20203;-59
2021/01/25 02:59:38;;;;;;;3.80;3.30;;;3.30;99.90;;;;;;5036249;28;20974;-59
2021/01/25 03:02:08;;;;;;;4.67;3.63;;;3.40;99.90;;;;;;5030680;28;20411;-61
2021/01/25 03:04:35;;;;;;;4.47;3.47;;;3.50;99.90;;;;;;5017216;28;20414;-60
2021/01/25 03:07:05;;;;;;;6.10;4.87;;;3.50;99.90;;;;;;5016919;28;20942;-60
2021/01/25 03:09:31;;;;;;;5.20;4.70;;;3.60;99.90;;;;;;5016747;28;20882;-61
2021/01/25 03:11:57;;;;;;;6.80;5.93;;;3.70;99.90;;;;;;5016135;28;20427;-61
2021/01/25 03:14:23;;;;;;;8.90;6.27;;;3.80;99.90;;;;;;5016551;28;20490;-62
2021/01/25 03:16:49;;;;;;;5.50;5.00;;;3.80;99.90;;;;;;5017093;28;20411;-60
2021/01/25 03:19:15;;;;;;;7.50;6.43;;;3.80;99.90;;;;;;5034305;22;20466;-67
2021/01/25 03:21:52;;;;;;;6.03;5.43;;;3.80;99.90;;;;;;5023202;28;20431;-65
2021/01/25 03:24:18;;;;;;;6.00;5.40;;;3.70;99.90;;;;;;5005029;28;20171;-64
2021/01/25 03:26:44;;;;;;;6.90;5.87;;;3.70;99.90;;;;;;5015709;28;20854;-64
2021/01/25 03:29:10;;;;;;;6.47;5.47;;;3.60;99.90;;;;;;5015717;28;20514;-64
2021/01/25 03:31:37;;;;;;;8.40;6.57;;;3.50;99.90;;;;;;5016221;28;20399;-64
2021/01/25 03:34:04;;;;;;;7.23;5.80;;;3.50;99.90;;;;;;5015720;28;20422;-65
2021/01/25 03:36:30;;;;;;;10.00;7.47;;;3.40;99.90;;;;;;5015523;28;20407;-64
2021/01/25 03:38:56;;;;;;;7.70;7.00;;;3.10;99.90;;;;;;5015765;28;20411;-64
2021/01/25 03:41:22;;;;;;;7.90;6.87;;;2.90;99.90;;;;;;5015526;28;20422;-64
2021/01/25 03:43:48;;;;;;;6.17;5.27;;;2.90;99.90;;;;;;5015732;28;20407;-64
2021/01/25 03:46:13;;;;;;;6.30;5.70;;;2.80;99.90;;;;;;4997727;28;20577;-64
2021/01/25 03:48:39;;;;;;;5.47;5.00;;;2.70;99.90;;;;;;4997886;28;20176;-64
2021/01/25 03:51:04;;;;;;;6.30;5.63;;;2.70;99.90;;;;;;4997811;28;20188;-64
2021/01/25 03:53:32;;;;;;;7.30;5.50;;;2.80;99.90;;;;;;5015327;28;20632;-64
2021/01/25 03:55:58;;;;;;;7.40;5.30;;;2.80;99.90;;;;;;5015190;28;20172;-64
2021/01/25 03:58:24;;;;;;;5.73;5.23;;;2.90;99.90;;;;;;5015743;28;20442;-64
2021/01/25 04:00:49;;;;;;;6.90;6.30;;;3.00;99.90;;;;;;5015619;28;20466;-65
2021/01/25 04:03:15;;;;;;;7.07;4.90;;;3.00;99.90;;;;;;5015376;28;20168;-64
2021/01/25 04:05:40;;;;;;;5.87;5.00;;;3.10;99.90;;;;;;5015032;28;20247;-64
2021/01/25 04:08:06;;;;;;;6.00;5.40;;;3.00;99.90;;;;;;5014979;28;20196;-64
2021/01/25 04:10:31;;;;;;;7.80;5.23;;;3.10;99.90;;;;;;5014905;28;20188;-64
2021/01/25 04:12:57;;;;;;;6.07;5.07;;;3.10;99.90;;;;;;5015191;28;20176;-64
2021/01/25 04:15:23;;;;;;;6.83;4.67;;;3.10;99.90;;;;;;5014834;28;20160;-64
2021/01/25 04:17:48;;;;;;;5.97;5.37;;;3.20;99.90;;;;;;5014873;28;20598;-64
2021/01/25 04:20:14;;;;;;;5.40;5.00;;;3.10;99.90;;;;;;5014809;28;20203;-64
2021/01/25 04:22:39;;;;;;;6.30;5.70;;;3.20;99.90;;;;;;5013723;28;20164;-64
2021/01/25 04:25:07;;;;;;;5.10;4.60;;;3.20;99.90;;;;;;5014703;28;20180;-65
2021/01/25 04:27:33;;;;;;;7.03;5.83;;;3.20;99.90;;;;;;5014805;28;20600;-64
2021/01/25 04:29:58;;;;;;;4.97;4.57;;;3.20;99.90;;;;;;5030222;28;20466;-65
2021/01/25 04:32:25;;;;;;;7.00;6.00;;;3.10;99.90;;;;;;5007814;28;20861;-64
2021/01/25 04:34:54;;;;;;;4.87;4.43;;;3.00;99.90;;;;;;5034536;28;20640;-64
2021/01/25 04:37:20;;;;;;;6.63;5.80;;;3.00;99.90;;;;;;5034251;28;20425;-65
2021/01/25 04:39:46;;;;;;;6.03;5.43;;;3.10;99.90;;;;;;5034122;28;20426;-64
2021/01/25 04:42:11;;;;;;;5.97;5.37;;;3.10;99.90;;;;;;5034116;28;21005;-64
2021/01/25 04:44:39;;;;;;;6.33;5.73;;;3.10;99.90;;;;;;5034073;28;20489;-64
2021/01/25 04:47:05;;;;;;;5.70;5.20;;;3.10;99.90;;;;;;5033972;28;20179;-64
2021/01/25 04:49:32;;;;;;;6.13;5.40;;;3.10;99.90;;;;;;5033893;28;20422;-64
2021/01/25 04:51:58;;;;;;;6.07;5.47;;;3.10;99.90;;;;;;5034197;28;20399;-64
2021/01/25 04:54:24;;;;;;;6.93;6.20;;;3.10;99.90;;;;;;5034116;28;20414;-64
2021/01/25 04:56:51;;;;;;;6.87;5.17;;;3.10;99.90;;;;;;5034077;28;20402;-64
2021/01/25 04:59:17;;;;;;;5.27;4.77;;;3.10;99.90;;;;;;5033684;28;20472;-64
2021/01/25 05:01:44;;;;;;;6.03;5.43;;;3.10;99.90;;;;;;5033697;28;20464;-64
2021/01/25 05:04:09;;;;;;;6.17;5.57;;;3.00;99.90;;;;;;5033751;28;20175;-64
2021/01/25 05:06:35;;;;;;;6.00;5.40;;;2.80;99.90;;;;;;5033590;28;20456;-64
2021/01/25 05:09:01;;;;;;;6.33;5.83;;;2.70;99.90;;;;;;5033841;28;20665;-64
2021/01/25 05:11:27;;;;;;;7.80;7.00;;;2.80;99.90;;;;;;5033604;28;20398;-64
2021/01/25 05:14:02;;;;;;;7.90;7.10;;;2.70;99.90;;;;;;5033809;28;20486;-64
2021/01/25 05:16:29;;;;;;;6.10;5.50;;;2.70;99.90;;;;;;5033834;28;20167;-64
2021/01/25 05:18:56;;;;;;;6.37;5.77;;;2.70;99.90;;;;;;5033378;28;20413;-64
2021/01/25 05:21:42;;;;;;;6.63;6.03;;;2.60;99.90;;;;;;5033411;28;20426;-64
2021/01/25 05:24:09;;;;;;;6.90;6.20;;;2.60;99.90;;;;;;5033437;28;20444;-64
2021/01/25 05:26:35;;;;;;;8.20;5.93;;;2.50;99.90;;;;;;5033612;28;20453;-63
2021/01/25 05:29:02;;;;;;;11.47;8.50;;;2.50;99.90;;;;;;5033636;28;20408;-64
2021/01/25 05:31:28;;;;;;;10.03;8.97;;;2.50;99.90;;;;;;5033585;28;20406;-63
2021/01/25 05:33:55;;;;;;;10.63;9.33;;;2.60;99.90;;;;;;5032978;28;20405;-64
2021/01/25 05:36:24;;;;;;;9.27;8.33;;;2.60;99.90;;;;;;5033169;28;20490;-64
2021/01/25 05:38:51;;;;;;;9.37;8.37;;;2.60;99.90;;;;;;5033302;28;20501;-64
2021/01/25 05:41:18;;;;;;;7.23;6.53;;;2.60;99.90;;;;;;5033136;28;20437;-64
2021/01/25 05:43:45;;;;;;;11.83;8.90;;;2.60;99.90;;;;;;5033102;28;20452;-65
2021/01/25 05:46:13;;;;;;;9.27;8.37;;;2.60;99.90;;;;;;5033059;28;21025;-64
2021/01/25 05:48:40;;;;;;;11.50;8.27;;;2.60;99.90;;;;;;5033371;28;20928;-64
2021/01/25 05:51:17;;;;;;;7.90;7.23;;;2.70;99.90;;;;;;5015543;28;20430;-65
2021/01/25 05:53:44;;;;;;;8.07;7.27;;;2.70;99.90;;;;;;5033289;28;20399;-65
2021/01/25 05:56:12;;;;;;;14.33;7.67;;;2.80;99.90;;;;;;5033203;28;20442;-65
2021/01/25 05:58:38;;;;;;;6.80;6.10;;;2.70;99.90;;;;;;5032956;28;20941;-65
2021/01/25 06:01:04;;;;;;;9.20;8.27;;;2.80;99.90;;;;;;5032887;28;20425;-65
2021/01/25 06:03:37;;;;;;;8.20;7.47;;;2.80;99.90;;;;;;5033161;28;20786;-65
2021/01/25 06:06:17;;;;;;;9.97;8.97;;;2.80;99.90;;;;;;5032993;28;20456;-65
2021/01/25 06:08:58;;;;;;;7.80;7.00;;;2.70;99.90;;;;;;5033163;28;20436;-65
2021/01/25 06:11:29;;;;;;;8.50;7.57;;;2.70;99.90;;;;;;5033242;28;20378;-65
2021/01/25 06:14:00;;;;;;;11.60;9.27;;;2.70;99.90;;;;;;5032637;28;20397;-65
2021/01/25 06:16:28;;;;;;;9.13;8.23;;;2.70;99.90;;;;;;5033256;28;20423;-65
2021/01/25 06:19:08;;;;;;;11.37;10.17;;;2.70;99.90;;;;;;5032750;28;20828;-65
2021/01/25 06:21:37;;;;;;;9.93;8.10;;;2.70;99.90;;;;;;5015451;28;20448;-65
2021/01/25 06:24:06;;;;;;;12.67;9.43;;;2.90;99.90;;;;;;5032947;28;20817;-65
2021/01/25 06:26:33;;;;;;;9.63;8.73;;;2.90;99.90;;;;;;5032832;28;20450;-65
2021/01/25 06:29:05;;;;;;;10.13;9.10;;;3.00;99.90;;;;;;5032609;28;20430;-64
2021/01/25 06:31:38;;;;;;;11.87;8.93;;;3.10;99.90;;;;;;5015076;28;20477;-64
2021/01/25 06:34:07;;;;;;;9.33;7.90;;;3.20;99.90;;;;;;5035040;28;20392;-65
2021/01/25 06:36:34;;;;;;;9.30;8.47;;;3.00;99.90;;;;;;5032679;28;20426;-64
2021/01/25 06:39:04;;;;;;;8.97;7.63;;;2.90;99.90;;;;;;5032709;28;20436;-66
2021/01/25 06:41:38;;;;;;;8.40;7.60;;;2.90;99.90;;;;;;5032635;28;20453;-66
2021/01/25 06:44:04;;;;;;;9.63;8.63;;;2.80;99.90;;;;;;5032299;28;20410;-65
2021/01/25 06:46:33;;;;;;;12.07;9.10;;;2.80;99.90;;;;;;5034794;28;20533;-64
2021/01/25 06:48:59;;;;;;;11.00;8.73;;;2.80;99.90;;;;;;5036569;28;20398;-65
2021/01/25 06:51:25;;;;;;;10.70;8.63;;;2.80;99.90;;;;;;5036074;28;20402;-64
2021/01/25 06:53:53;;;;;;;10.20;8.73;;;2.80;99.90;;;;;;5034756;28;20428;-64
2021/01/25 06:56:19;;;;;;;10.17;9.17;;;2.90;99.90;;;;;;5036166;28;20439;-64
2021/01/25 06:58:49;;;;;;;9.60;7.87;;;3.00;99.90;;;;;;5035660;28;20931;-64
2021/01/25 07:01:22;;;;;;;13.20;9.33;;;3.00;99.90;;;;;;5036230;28;20556;-64
2021/01/25 07:03:58;;;;;;;10.10;7.50;;;3.10;99.90;;;;;;5035958;28;20414;-64
2021/01/25 07:06:37;;;;;;;10.97;9.73;;;3.00;99.90;;;;;;5035702;28;20972;-65
2021/01/25 07:09:07;;;;;;;8.47;7.60;;;3.00;99.90;;;;;;5036001;28;20406;-64
2021/01/25 07:11:35;;;;;;;9.40;8.40;;;3.00;99.90;;;;;;5018109;28;20409;-65
2021/01/25 07:14:02;;;;;;;9.60;8.60;;;2.90;99.90;;;;;;5035801;28;20484;-63
2021/01/25 07:16:28;;;;;;;10.10;7.43;;;2.90;99.90;;;;;;5035761;28;20398;-64
2021/01/25 07:18:54;;;;;;;8.43;7.53;;;2.90;99.90;;;;;;5035502;28;20852;-64
2021/01/25 07:21:21;;;;;;;10.87;7.73;;;2.90;99.90;;;;;;5035467;28;20822;-64
2021/01/25 07:23:49;;;;;;;10.23;7.70;;;2.80;99.90;;;;;;5033991;28;20782;-64
2021/01/25 07:26:17;;;;;;;12.60;8.20;;;2.80;99.90;;;;;;5017839;28;20891;-64
2021/01/25 07:28:44;;;;;;;10.00;9.00;;;2.90;99.90;;;;;;5035499;28;20468;-64
2021/01/25 07:31:10;;;;;;;12.83;9.30;;;2.90;99.90;;;;;;5035333;28;20463;-64
2021/01/25 07:33:39;;;;;;;10.87;8.97;;;2.90;99.90;;;;;;5035490;28;20795;-64
2021/01/25 07:36:05;;;;;;;11.23;8.00;;;3.00;99.90;;;;;;5034082;28;20827;-63
2021/01/25 07:38:31;;;;;;;8.73;7.83;;;3.10;99.90;;;;;;5035299;28;20976;-64
2021/01/25 07:40:59;;;;;;;12.70;10.27;;;3.10;99.90;;;;;;5034967;28;20517;-64
2021/01/25 07:43:26;;;;;;;12.37;10.80;;;3.20;99.90;;;;;;5035006;28;20417;-64
2021/01/25 07:45:54;;;;;;;10.40;8.80;;;3.30;99.90;;;;;;5035668;28;20433;-64
2021/01/25 07:48:20;;;;;;;18.90;14.50;;;3.30;99.90;;;;;;5017566;28;20914;-64
2021/01/25 07:50:57;;;;;;;11.83;9.77;;;3.40;99.90;;;;;;5034967;28;20433;-64
2021/01/25 07:53:23;;;;;;;8.90;8.00;;;3.40;99.90;;;;;;5035248;28;20262;-64
2021/01/25 07:55:49;;;;;;;11.10;8.27;;;3.20;99.90;;;;;;5035111;28;20464;-64
2021/01/25 07:58:15;;;;;;;12.33;8.47;;;3.20;99.90;;;;;;5034654;28;20523;-64
2021/01/25 08:00:41;;;;;;;15.80;9.80;;;3.10;99.90;;;;;;5034695;28;20425;-64
2021/01/25 08:03:22;;;;;;;11.40;8.27;;;3.10;99.90;;;;;;5035000;28;20660;-64
2021/01/25 08:05:52;;;;;;;11.87;8.83;;;3.20;99.90;;;;;;5035136;28;20766;-65
2021/01/25 08:08:18;;;;;;;10.80;8.43;;;3.10;99.90;;;;;;5034713;28;20910;-64
2021/01/25 08:10:44;;;;;;;9.57;8.60;;;3.10;99.90;;;;;;5016866;28;20469;-64
2021/01/25 08:13:16;;;;;;;14.30;9.47;;;3.10;99.90;;;;;;5035037;28;20163;-65
2021/01/25 08:16:02;;;;;;;10.53;9.40;;;3.10;99.90;;;;;;5034322;28;20536;-65
2021/01/25 08:18:56;;;;;;;11.03;9.93;;;3.30;99.90;;;;;;5034675;28;20448;-64
2021/01/25 08:22:03;;;;;;;12.60;10.37;;;3.50;99.90;;;;;;5030242;28;20426;-65
2021/01/25 08:24:30;;;;;;;14.43;10.40;;;3.70;99.90;;;;;;5033827;28;20422;-64
2021/01/25 08:27:14;;;;;;;14.03;10.43;;;3.70;99.90;;;;;;5034326;28;20493;-64
2021/01/25 08:29:41;;;;;;;11.63;9.70;;;3.80;99.90;;;;;;5039439;28;20420;-65
2021/01/25 08:32:14;;;;;;;14.17;9.60;;;3.80;99.90;;;;;;5054207;28;20564;-64
2021/01/25 08:34:39;;;;;;;13.60;9.00;;;3.90;99.90;;;;;;5054155;28;20916;-64
2021/01/25 08:37:12;;;;;;;9.90;8.33;;;3.90;99.90;;;;;;5019800;28;20405;-64
2021/01/25 08:39:44;;;;;;;12.13;9.27;;;4.00;99.90;;;;;;5053913;28;20195;-64
2021/01/25 08:42:22;;;;;;;17.30;8.60;;;4.00;99.90;;;;;;5053853;28;20465;-65
2021/01/25 08:44:50;;;;;;;10.27;7.53;;;3.90;99.90;;;;;;5053860;28;20468;-65
2021/01/25 08:47:23;;;;;;;13.67;9.23;;;3.80;99.90;;;;;;5053722;28;20452;-63
2021/01/25 08:49:49;;;;;;;10.30;9.10;;;3.90;99.90;;;;;;5053867;28;20432;-65
2021/01/25 08:52:39;;;;;;;9.73;8.17;;;4.20;99.90;;;;;;5054003;28;20405;-65
2021/01/25 08:55:23;;;;;;;10.60;7.50;;;4.40;99.90;;;;;;5053889;28;20147;-66
2021/01/25 08:57:50;;;;;;;17.63;7.97;;;4.50;99.90;;;;;;5053533;28;20893;-66
2021/01/25 09:00:18;;;;;;;10.73;8.97;;;4.50;99.90;;;;;;5053691;28;20511;-66
2021/01/25 09:02:45;;;;;;;10.53;8.70;;;4.60;99.90;;;;;;5053674;28;20405;-66
2021/01/25 09:05:14;;;;;;;11.27;7.40;;;4.70;99.90;;;;;;5053858;28;20554;-65
2021/01/25 09:07:40;;;;;;;12.30;8.80;;;4.80;99.90;;;;;;5053629;28;20547;-66
2021/01/25 09:10:07;;;;;;;8.50;7.30;;;4.70;99.90;;;;;;5053078;28;20480;-65
2021/01/25 09:12:33;;;;;;;10.13;6.53;;;4.80;99.90;;;;;;5053888;28;20921;-65
2021/01/25 09:14:58;;;;;;;9.80;8.60;;;4.90;99.90;;;;;;5053246;28;20402;-66
2021/01/25 09:17:24;;;;;;;10.40;8.03;;;4.90;99.90;;;;;;5048684;28;20266;-65
2021/01/25 09:19:50;;;;;;;11.13;7.00;;;4.80;99.90;;;;;;5034564;28;20606;-65
2021/01/25 09:22:16;;;;;;;8.50;7.50;;;4.90;99.90;;;;;;5033320;28;20187;-65
2021/01/25 09:24:42;;;;;;;9.13;7.37;;;4.80;99.90;;;;;;5033194;28;20508;-65
2021/01/25 09:27:09;;;;;;;11.60;8.50;;;4.80;99.90;;;;;;5015466;28;20981;-65
2021/01/25 09:29:34;;;;;;;10.50;6.80;;;5.00;99.90;;;;;;5032991;28;20245;-65
2021/01/25 09:32:00;;;;;;;11.13;7.27;;;5.10;99.90;;;;;;5033158;28;20406;-65
2021/01/25 09:34:26;;;;;;;9.77;8.00;;;5.10;99.90;;;;;;5033337;28;20168;-65
2021/01/25 09:36:52;;;;;;;8.93;7.97;;;5.10;99.90;;;;;;5033044;28;20206;-65
2021/01/25 09:39:18;;;;;;;10.60;8.03;;;5.00;99.90;;;;;;5032729;28;20191;-65
2021/01/25 09:41:46;;;;;;;9.30;8.07;;;5.10;99.90;;;;;;5032679;28;20237;-65
2021/01/25 09:44:13;;;;;;;10.83;7.63;;;5.20;99.90;;;;;;5033201;28;20414;-65
2021/01/25 09:46:41;;;;;;;11.40;7.77;;;5.20;99.90;;;;;;5033073;28;21035;-66
2021/01/25 09:49:08;;;;;;;9.37;7.77;;;5.30;99.90;;;;;;5032787;28;20457;-67
2021/01/25 09:51:34;;;;;;;8.00;7.13;;;5.30;99.90;;;;;;5032817;28;20410;-67
2021/01/25 09:53:59;;;;;;;9.53;7.37;;;5.40;99.90;;;;;;5033089;28;20463;-66
2021/01/25 09:56:25;;;;;;;9.13;7.83;;;5.30;99.90;;;;;;5032810;28;20258;-66
2021/01/25 09:58:51;;;;;;;9.93;7.93;;;5.30;99.90;;;;;;5032764;28;20179;-67
2021/01/25 10:01:16;;;;;;;8.03;7.10;;;5.30;99.90;;;;;;5033230;28;20175;-66
2021/01/25 10:03:42;;;;;;;9.17;8.20;;;5.30;99.90;;;;;;5032936;28;20175;-66
2021/01/25 10:06:08;;;;;;;8.57;7.77;;;5.30;99.90;;;;;;5032937;28;20191;-66
2021/01/25 10:08:36;;;;;;;9.83;6.60;;;5.30;99.90;;;;;;5032826;28;20171;-66
2021/01/25 10:11:02;;;;;;;7.97;6.80;;;5.30;99.90;;;;;;5032973;28;20418;-66
2021/01/25 10:13:28;;;;;;;8.63;6.20;;;5.40;99.90;;;;;;5032743;28;20475;-66
2021/01/25 10:15:53;;;;;;;6.57;5.67;;;5.50;99.90;;;;;;5029017;28;20422;-66
2021/01/25 10:18:19;;;;;;;8.13;6.43;;;5.50;99.90;;;;;;5006463;28;20179;-66
2021/01/25 10:20:45;;;;;;;9.63;6.50;;;5.70;99.90;;;;;;5033607;28;20202;-67
2021/01/25 10:23:10;;;;;;;6.93;6.33;;;5.80;99.90;;;;;;5036770;28;20203;-66
2021/01/25 10:25:36;;;;;;;6.27;5.67;;;5.80;99.90;;;;;;5036903;28;20177;-66
2021/01/25 10:28:01;;;;;;;7.43;6.73;;;5.90;99.90;;;;;;5018880;28;20207;-66
2021/01/25 10:30:27;;;;;;;6.27;5.67;;;6.00;99.90;;;;;;5036386;28;20246;-66
2021/01/25 10:32:53;;;;;;;6.27;5.50;;;6.00;99.90;;;;;;5036378;28;20170;-66
2021/01/25 10:35:19;;;;;;;11.97;5.67;;;6.10;99.90;;;;;;5036319;28;20171;-66
2021/01/25 10:37:45;;;;;;;6.23;5.63;;;6.20;99.90;;;;;;5052794;28;20239;-67
2021/01/25 10:40:13;;;;;;;6.07;5.57;;;6.10;99.90;;;;;;5057161;28;20445;-66
2021/01/25 10:42:39;;;;;;;8.90;5.70;;;6.10;99.90;;;;;;5056808;28;20838;-66
2021/01/25 10:45:05;;;;;;;6.13;5.63;;;6.10;99.90;;;;;;5056465;28;20500;-66
2021/01/25 10:47:31;;;;;;;7.83;5.20;;;5.90;99.90;;;;;;5054598;28;20195;-66
2021/01/25 10:49:56;;;;;;;5.00;4.30;;;5.30;99.90;;;;;;5055686;28;20432;-66
2021/01/25 10:52:22;;;;;;;5.50;5.00;;;5.10;99.90;;;;;;5056072;28;20178;-66
2021/01/25 10:54:48;;;;;;;7.03;4.73;;;5.00;99.90;;;;;;5037817;28;20167;-66
2021/01/25 10:57:13;;;;;;;7.13;5.60;;;4.70;99.90;;;;;;5055967;28;20178;-66
2021/01/25 10:59:39;;;;;;;6.17;4.50;;;4.90;99.90;;;;;;5055398;28;20198;-66
2021/01/25 11:02:06;;;;;;;6.83;5.30;;;5.00;99.90;;;;;;5055935;28;20166;-64
2021/01/25 11:04:32;;;;;;;6.40;5.80;;;5.30;99.90;;;;;;5055475;28;20167;-65
2021/01/25 11:06:58;;;;;;;5.20;4.57;;;5.40;99.90;;;;;;5055402;28;20887;-65
2021/01/25 11:09:24;;;;;;;4.90;4.30;;;5.60;99.90;;;;;;5055441;28;20425;-65
2021/01/25 11:11:53;;;;;;;5.33;4.13;;;6.00;99.90;;;;;;5055413;28;20405;-66
2021/01/25 11:14:18;;;;;;;6.23;4.37;;;6.20;99.90;;;;;;5055721;28;20782;-65
2021/01/25 11:16:44;;;;;;;4.67;4.07;;;6.30;99.90;;;;;;5055861;28;20413;-65
2021/01/25 11:19:10;;;;;;;5.80;4.80;;;6.40;99.90;;;;;;5053979;28;20682;-65
2021/01/25 11:21:36;;;;;;;5.30;4.80;;;6.60;99.90;;;;;;5055079;28;20265;-65
2021/01/25 11:24:03;;;;;;;5.13;4.63;;;6.70;99.90;;;;;;5055602;28;20436;-65
2021/01/25 11:26:32;;;;;;;4.00;3.70;;;6.70;99.90;;;;;;5055576;28;20193;-65
2021/01/25 11:28:58;;;;;;;3.70;3.40;;;6.60;99.90;;;;;;5055349;28;20481;-65
2021/01/25 11:31:23;;;;;;;4.60;4.17;;;6.40;99.90;;;;;;5054769;28;20488;-66
2021/01/25 11:33:49;;;;;;;5.90;4.30;;;6.80;99.90;;;;;;5055205;28;20182;-66
2021/01/25 11:36:14;;;;;;;4.33;3.50;;;6.80;99.90;;;;;;5055215;28;20596;-66
2021/01/25 11:38:40;;;;;;;6.27;4.30;;;6.80;99.90;;;;;;5055684;28;20273;-66
2021/01/25 11:41:05;;;;;;;6.27;4.60;;;6.90;99.90;;;;;;5055022;28;20278;-66
2021/01/25 11:43:31;;;;;;;4.97;3.77;;;7.10;99.90;;;;;;5055145;28;20174;-66
2021/01/25 11:45:57;;;;;;;4.10;3.60;;;7.10;99.90;;;;;;5053692;28;20228;-66
2021/01/25 11:48:23;;;;;;;4.00;3.60;;;7.30;99.90;;;;;;5055072;28;20208;-66
2021/01/25 11:50:49;;;;;;;4.33;3.83;;;6.80;99.90;;;;;;5053852;28;20182;-66
2021/01/25 11:53:15;;;;;;;3.77;3.43;;;6.80;99.90;;;;;;5055234;28;20400;-66
2021/01/25 11:55:41;;;;;;;7.43;3.80;;;6.80;99.90;;;;;;5055495;28;20412;-66
2021/01/25 11:58:08;;;;;;;3.20;2.90;;;6.20;99.90;;;;;;5054819;28;20409;-66
2021/01/25 12:00:33;;;;;;;4.33;3.23;;;6.10;99.90;;;;;;5054798;28;20832;-66
2021/01/25 12:02:59;;;;;;;4.00;3.53;;;6.10;99.90;;;;;;5054953;28;20401;-66
2021/01/25 12:05:25;;;;;;;4.00;3.10;;;6.30;99.90;;;;;;5053222;28;20213;-66
2021/01/25 12:07:50;;;;;;;5.30;3.17;;;6.30;99.90;;;;;;5054366;28;20191;-65
2021/01/25 12:10:16;;;;;;;3.57;3.17;;;6.10;99.90;;;;;;5054195;28;20806;-66
2021/01/25 12:12:42;;;;;;;3.73;3.43;;;6.20;99.90;;;;;;5054404;28;20178;-66
2021/01/25 12:15:08;;;;;;;3.77;3.40;;;6.20;99.90;;;;;;5054317;28;20171;-66
2021/01/25 12:17:33;;;;;;;6.30;4.27;;;6.40;99.90;;;;;;5054327;28;20166;-66
2021/01/25 12:19:59;;;;;;;6.33;2.97;;;6.50;99.90;;;;;;5054338;28;20823;-66
2021/01/25 12:22:24;;;;;;;3.60;3.27;;;6.60;99.90;;;;;;5054621;28;20583;-66
2021/01/25 12:24:50;;;;;;;3.40;3.10;;;6.70;99.90;;;;;;5054178;28;20166;-66
2021/01/25 12:27:16;;;;;;;2.77;2.57;;;6.70;99.90;;;;;;5054499;28;20352;-66
2021/01/25 12:29:41;;;;;;;2.50;2.30;;;6.70;99.90;;;;;;5054196;28;20270;-66
2021/01/25 12:32:07;;;;;;;2.43;1.90;;;6.90;99.90;;;;;;5054350;28;20192;-66
2021/01/25 12:34:34;;;;;;;4.40;3.00;;;7.00;99.90;;;;;;5054349;28;20166;-66
2021/01/25 12:37:00;;;;;;;5.53;2.40;;;6.80;99.90;;;;;;5054043;28;20417;-66
2021/01/25 12:39:26;;;;;;;2.60;2.40;;;6.90;99.90;;;;;;5053968;28;20501;-66
2021/01/25 12:41:52;;;;;;;3.10;2.40;;;7.40;99.90;;;;;;5052652;28;20821;-66
2021/01/25 12:44:17;;;;;;;3.50;3.20;;;7.60;99.90;;;;;;5052963;28;20640;-66
2021/01/25 12:46:44;;;;;;;2.63;2.43;;;7.50;99.90;;;;;;5050516;28;20214;-66
2021/01/25 12:49:11;;;;;;;2.03;1.67;;;7.60;99.90;;;;;;5053744;28;20189;-66
2021/01/25 12:51:37;;;;;;;2.30;2.07;;;7.60;99.90;;;;;;5054061;28;20430;-66
2021/01/25 12:54:03;;;;;;;2.43;1.87;;;7.30;99.90;;;;;;5053772;28;20401;-66
2021/01/25 12:56:28;;;;;;;1.60;1.50;;;7.40;99.90;;;;;;5053619;28;20410;-66